Time;durP1;ratioP1;P1;durP2;ratioP2;P2;SDS_P1;SDS_P2;PMS_P1;PMS_P2;Temp;Humidity;BMP_temperature;BMP_pressure;BME280_temperature;BME280_humidity;BME280_pressure;Samples;Min_cycle;Max_cycle;Signal;HPM_P1;HPM_P2
2021/10/09 00:00:16;;;;;;;50.97;30.97;;;12.90;81.50;;;;;;4962199;28;20241;-94
2021/10/09 00:02:42;;;;;;;47.72;31.17;;;12.90;81.40;;;;;;4982294;28;20553;-93
2021/10/09 00:05:08;;;;;;;45.70;30.97;;;13.00;81.50;;;;;;4951798;28;20188;-93
2021/10/09 00:07:34;;;;;;;49.10;31.70;;;13.10;81.40;;;;;;4966042;28;20180;-93
2021/10/09 00:10:03;;;;;;;45.50;32.13;;;13.00;81.20;;;;;;4968327;28;20215;-93
2021/10/09 00:12:29;;;;;;;45.25;32.88;;;12.90;81.70;;;;;;4967752;28;20278;-93
2021/10/09 00:14:55;;;;;;;53.42;33.22;;;12.90;81.90;;;;;;4967617;28;20598;-93
2021/10/09 00:17:24;;;;;;;50.67;33.97;;;12.90;81.90;;;;;;4984848;28;20211;-93
2021/10/09 00:19:50;;;;;;;50.10;34.13;;;12.80;81.80;;;;;;4963946;28;20184;-93
2021/10/09 00:22:16;;;;;;;60.50;36.20;;;12.70;82.40;;;;;;4968150;28;20176;-94
2021/10/09 00:24:42;;;;;;;55.80;33.28;;;12.80;82.50;;;;;;4970917;28;20294;-94
2021/10/09 00:27:08;;;;;;;51.43;34.13;;;12.80;82.40;;;;;;4959538;29;20188;-93
2021/10/09 00:29:34;;;;;;;51.30;34.13;;;12.80;82.50;;;;;;4968918;29;20416;-94
2021/10/09 00:32:00;;;;;;;49.57;34.40;;;12.80;82.30;;;;;;4955998;28;20188;-93
2021/10/09 00:34:26;;;;;;;50.90;31.90;;;12.70;82.30;;;;;;4963073;28;20539;-93
2021/10/09 00:36:51;;;;;;;52.20;33.43;;;12.90;82.20;;;;;;4961910;28;20184;-93
2021/10/09 00:39:17;;;;;;;50.60;33.67;;;12.80;82.10;;;;;;4963262;29;20491;-93
2021/10/09 00:41:44;;;;;;;50.47;34.27;;;12.80;82.00;;;;;;4960614;29;20172;-93
2021/10/09 00:44:15;;;;;;;52.13;33.10;;;12.90;81.80;;;;;;4968153;28;20436;-93
2021/10/09 00:46:43;;;;;;;50.17;33.60;;;12.90;81.60;;;;;;4960298;29;20188;-93
2021/10/09 00:49:16;;;;;;;49.97;33.80;;;12.80;81.60;;;;;;4944871;29;20195;-94
2021/10/09 00:51:47;;;;;;;48.83;35.33;;;12.80;81.60;;;;;;4944871;29;20259;-93
2021/10/09 00:54:15;;;;;;;50.10;35.00;;;12.90;81.80;;;;;;4943900;29;20208;-93
2021/10/09 00:56:43;;;;;;;51.88;31.83;;;12.80;81.70;;;;;;4942191;29;20184;-93
2021/10/09 00:59:10;;;;;;;51.90;32.97;;;12.80;81.80;;;;;;4942203;29;20318;-93
2021/10/09 01:01:36;;;;;;;52.85;33.60;;;12.70;82.00;;;;;;4943283;29;20188;-93
2021/10/09 01:04:05;;;;;;;50.78;35.00;;;12.90;81.90;;;;;;4944880;29;20208;-94
2021/10/09 01:06:31;;;;;;;60.55;33.55;;;12.80;81.80;;;;;;4938882;28;20188;-94
2021/10/09 01:08:57;;;;;;;52.13;34.20;;;12.90;81.90;;;;;;4961333;28;20186;-93
2021/10/09 01:11:23;;;;;;;55.90;38.33;;;12.90;81.90;;;;;;4960958;28;20290;-93
2021/10/09 01:13:49;;;;;;;55.80;35.37;;;12.90;81.90;;;;;;4961050;28;20633;-94
2021/10/09 01:16:23;;;;;;;49.03;34.13;;;12.80;81.80;;;;;;4962609;28;20517;-93
2021/10/09 01:18:54;;;;;;;53.67;36.58;;;12.80;81.90;;;;;;4950691;28;20427;-93
2021/10/09 01:21:21;;;;;;;59.47;36.72;;;12.70;82.10;;;;;;4961504;28;20238;-93
2021/10/09 01:23:47;;;;;;;51.65;33.10;;;12.70;82.30;;;;;;4960214;28;20203;-93
2021/10/09 01:26:13;;;;;;;59.40;36.15;;;12.70;82.30;;;;;;4959765;28;20222;-93
2021/10/09 01:28:43;;;;;;;53.53;36.33;;;12.70;82.30;;;;;;4960631;28;20188;-94
2021/10/09 01:31:10;;;;;;;58.00;37.40;;;12.70;82.30;;;;;;4960544;28;20242;-93
2021/10/09 01:33:36;;;;;;;57.60;37.30;;;12.70;82.30;;;;;;4959636;28;20211;-92
2021/10/09 01:36:01;;;;;;;53.47;33.63;;;12.60;82.30;;;;;;4959728;28;20745;-92
2021/10/09 01:38:28;;;;;;;60.37;38.50;;;12.70;82.40;;;;;;4959016;28;20522;-92
2021/10/09 01:40:55;;;;;;;58.10;34.50;;;12.70;82.40;;;;;;4962357;28;20176;-93
2021/10/09 01:43:23;;;;;;;63.65;37.78;;;12.70;82.30;;;;;;4965230;28;20203;-92
2021/10/09 01:45:49;;;;;;;60.00;35.67;;;12.70;82.10;;;;;;4966252;28;20275;-92
2021/10/09 01:48:15;;;;;;;58.30;35.17;;;12.70;82.10;;;;;;4965392;28;20214;-93
2021/10/09 01:50:42;;;;;;;64.03;38.80;;;12.70;82.20;;;;;;4961750;28;20187;-93
2021/10/09 01:53:08;;;;;;;60.97;37.55;;;12.60;82.30;;;;;;4960294;28;20203;-93
2021/10/09 01:55:35;;;;;;;64.73;37.60;;;12.50;82.50;;;;;;4960647;28;20191;-93
2021/10/09 01:58:01;;;;;;;54.47;38.17;;;12.50;82.60;;;;;;4962312;28;20423;-94
2021/10/09 02:00:27;;;;;;;68.40;38.27;;;12.60;82.50;;;;;;4960850;28;20187;-94
2021/10/09 02:02:54;;;;;;;61.87;38.50;;;12.50;82.50;;;;;;4961679;28;20218;-93
2021/10/09 02:05:20;;;;;;;62.85;40.10;;;12.50;82.50;;;;;;4960386;28;20423;-93
2021/10/09 02:07:45;;;;;;;62.43;38.20;;;12.50;82.60;;;;;;4960504;28;20667;-93
2021/10/09 02:10:14;;;;;;;70.07;39.73;;;12.50;82.70;;;;;;4961015;28;20202;-93
2021/10/09 02:12:41;;;;;;;56.75;38.33;;;12.50;82.70;;;;;;4959703;28;20203;-93
2021/10/09 02:15:12;;;;;;;64.53;38.35;;;12.50;82.70;;;;;;4960465;28;20254;-92
2021/10/09 02:25:47;;;;;;;66.28;41.25;;;12.40;83.00;;;;;;4985177;28;20178;-93
2021/10/09 02:28:23;;;;;;;61.30;37.95;;;12.40;83.10;;;;;;4965418;28;20244;-93
2021/10/09 02:30:51;;;;;;;70.57;39.72;;;12.50;83.10;;;;;;4948115;28;20242;-92
2021/10/09 02:33:17;;;;;;;70.95;41.78;;;12.40;83.20;;;;;;4963561;28;20218;-93
2021/10/09 02:35:43;;;;;;;71.20;41.00;;;12.40;83.20;;;;;;4964994;28;20195;-93
2021/10/09 02:38:09;;;;;;;68.30;42.08;;;12.40;83.20;;;;;;4965094;28;20419;-93
2021/10/09 02:40:37;;;;;;;61.55;39.53;;;12.30;83.30;;;;;;4964619;28;20180;-93
2021/10/09 02:43:04;;;;;;;72.13;40.22;;;12.30;83.60;;;;;;4965833;28;20199;-94
2021/10/09 02:45:30;;;;;;;70.82;40.67;;;12.40;83.40;;;;;;4965168;28;20190;-94
2021/10/09 02:48:00;;;;;;;67.63;40.47;;;12.40;83.40;;;;;;4965572;28;20219;-93
2021/10/09 02:50:27;;;;;;;68.88;43.72;;;12.30;83.20;;;;;;4982926;28;20184;-93
2021/10/09 02:52:53;;;;;;;65.57;41.20;;;12.20;83.50;;;;;;4949888;28;20215;-93
2021/10/09 02:55:19;;;;;;;75.67;45.60;;;12.20;83.70;;;;;;4967694;28;20591;-93
2021/10/09 02:57:49;;;;;;;76.78;42.08;;;12.10;84.00;;;;;;4984387;28;20194;-94
2021/10/09 03:00:16;;;;;;;71.70;38.38;;;12.20;84.00;;;;;;4984727;28;20212;-93
2021/10/09 03:02:42;;;;;;;73.32;41.15;;;12.20;84.50;;;;;;4984616;28;20223;-95
2021/10/09 03:05:10;;;;;;;80.22;42.47;;;12.30;83.90;;;;;;4984912;28;20183;-93
2021/10/09 03:07:36;;;;;;;69.28;39.97;;;12.20;83.80;;;;;;4984738;28;20176;-93
2021/10/09 03:10:07;;;;;;;72.90;41.92;;;12.30;83.80;;;;;;4984322;28;20218;-93
2021/10/09 03:12:33;;;;;;;75.50;43.95;;;12.20;83.80;;;;;;5001298;28;20202;-93
2021/10/09 03:14:59;;;;;;;72.32;41.85;;;12.20;83.80;;;;;;5001628;28;20271;-94
2021/10/09 03:17:25;;;;;;;72.53;42.30;;;12.20;83.90;;;;;;4984422;28;20175;-94
2021/10/09 03:19:51;;;;;;;79.47;44.00;;;12.10;84.70;;;;;;4984599;28;20427;-94
2021/10/09 03:22:17;;;;;;;81.07;44.77;;;12.20;83.80;;;;;;4984238;28;20427;-93
2021/10/09 03:24:43;;;;;;;64.45;40.72;;;12.30;83.80;;;;;;4984400;28;20423;-93
2021/10/09 03:27:09;;;;;;;84.45;43.78;;;12.30;83.70;;;;;;4984163;28;20184;-94
2021/10/09 03:29:35;;;;;;;82.10;43.97;;;12.10;83.70;;;;;;4984283;28;20219;-91
2021/10/09 03:32:00;;;;;;;74.43;40.47;;;12.10;83.70;;;;;;4983011;28;20180;-92
2021/10/09 03:34:32;;;;;;;77.13;43.63;;;12.10;84.60;;;;;;4984141;28;20208;-93
2021/10/09 03:37:01;;;;;;;74.40;40.70;;;12.00;84.00;;;;;;4984203;28;20168;-93
2021/10/09 03:39:27;;;;;;;74.80;42.33;;;12.00;84.10;;;;;;4984143;28;20247;-93
2021/10/09 03:41:59;;;;;;;71.43;42.07;;;11.90;84.20;;;;;;5000928;28;20175;-92
2021/10/09 03:44:25;;;;;;;78.40;42.05;;;11.90;84.50;;;;;;4984031;28;20447;-95
2021/10/09 03:47:12;;;;;;;81.55;46.05;;;11.90;84.60;;;;;;4983937;28;20202;-94
2021/10/09 03:49:46;;;;;;;72.30;45.65;;;11.90;84.90;;;;;;4983908;28;20187;-93
2021/10/09 03:54:56;;;;;;;80.82;42.53;;;11.80;84.90;;;;;;4986502;28;20227;-92
2021/10/09 03:57:22;;;;;;;87.37;48.57;;;11.90;84.80;;;;;;4983768;28;20191;-93
2021/10/09 03:59:47;;;;;;;88.60;44.40;;;12.00;84.60;;;;;;4983703;28;20172;-92
2021/10/09 04:02:13;;;;;;;73.47;40.73;;;11.90;84.60;;;;;;4983472;28;20235;-95
2021/10/09 04:04:39;;;;;;;84.17;42.30;;;11.80;84.50;;;;;;4983575;28;20227;-94
2021/10/09 04:07:04;;;;;;;81.90;42.63;;;11.80;84.60;;;;;;4983613;28;20178;-92
2021/10/09 04:09:30;;;;;;;78.90;44.43;;;11.80;84.60;;;;;;4983583;28;20180;-92
2021/10/09 04:11:56;;;;;;;80.57;44.73;;;11.70;85.00;;;;;;4983432;28;20276;-94
2021/10/09 04:17:44;;;;;;;96.15;46.17;;;11.60;85.40;;;;;;5000389;28;20167;-93
2021/10/09 04:20:10;;;;;;;87.57;47.30;;;11.70;85.40;;;;;;4983287;28;20176;-89
2021/10/09 04:22:36;;;;;;;84.93;44.17;;;11.60;85.30;;;;;;4983218;28;20215;-92
2021/10/09 04:25:02;;;;;;;84.47;45.97;;;11.70;85.20;;;;;;4983110;28;20184;-93
2021/10/09 04:27:27;;;;;;;82.87;46.67;;;11.60;85.00;;;;;;4983350;28;20522;-93
2021/10/09 04:29:53;;;;;;;81.87;44.67;;;11.70;85.10;;;;;;4983262;28;20431;-90
2021/10/09 04:32:19;;;;;;;86.33;44.97;;;11.70;84.90;;;;;;4999892;28;20168;-95
2021/10/09 04:34:44;;;;;;;80.87;44.40;;;11.70;84.80;;;;;;4983074;28;20224;-94
2021/10/09 04:37:10;;;;;;;86.53;43.73;;;11.70;84.70;;;;;;4983116;28;20180;-91
2021/10/09 04:39:36;;;;;;;77.10;44.27;;;11.70;84.50;;;;;;4983064;28;20175;-94
2021/10/09 04:42:02;;;;;;;76.40;42.27;;;11.80;84.30;;;;;;4982871;28;20199;-91
2021/10/09 04:44:28;;;;;;;70.97;41.28;;;11.70;84.40;;;;;;4982844;28;20196;-95
2021/10/09 04:46:54;;;;;;;78.57;43.58;;;11.60;84.40;;;;;;4983106;28;20195;-94
2021/10/09 04:49:20;;;;;;;83.50;43.23;;;11.50;84.70;;;;;;4982946;28;20175;-95
2021/10/09 04:51:46;;;;;;;78.17;44.27;;;11.60;84.70;;;;;;4982719;28;20172;-92
2021/10/09 04:54:11;;;;;;;81.60;43.40;;;11.60;84.60;;;;;;4982538;28;20227;-92
2021/10/09 04:56:37;;;;;;;81.77;41.87;;;11.50;84.60;;;;;;4982836;28;20260;-93
2021/10/09 04:59:03;;;;;;;86.20;46.13;;;11.50;84.80;;;;;;4982760;28;20172;-94
2021/10/09 05:01:29;;;;;;;87.00;43.47;;;11.40;84.70;;;;;;4966440;28;20494;-92
2021/10/09 05:03:54;;;;;;;82.57;43.53;;;11.40;84.80;;;;;;4982442;28;20200;-92
2021/10/09 05:06:20;;;;;;;78.47;45.10;;;11.50;84.80;;;;;;4982617;28;20191;-93
2021/10/09 05:08:46;;;;;;;79.80;43.87;;;11.40;84.80;;;;;;4999451;28;20231;-94
2021/10/09 05:11:11;;;;;;;91.27;45.07;;;11.40;84.80;;;;;;4982245;28;20188;-91
2021/10/09 05:13:37;;;;;;;84.23;42.90;;;11.50;85.00;;;;;;4982341;28;20211;-94
2021/10/09 05:16:03;;;;;;;88.00;43.90;;;11.30;85.20;;;;;;4982299;28;20244;-94
2021/10/09 05:18:29;;;;;;;97.65;47.35;;;11.40;85.20;;;;;;4982235;28;20180;-92
2021/10/09 05:20:54;;;;;;;89.93;45.73;;;11.30;85.10;;;;;;4982295;28;20163;-94
2021/10/09 05:23:20;;;;;;;95.17;44.77;;;11.30;85.20;;;;;;4982161;28;20206;-92
2021/10/09 05:25:47;;;;;;;89.00;42.90;;;11.40;85.10;;;;;;4982348;28;20192;-92
2021/10/09 05:28:16;;;;;;;84.93;42.60;;;11.40;84.80;;;;;;4982204;28;20419;-92
2021/10/09 05:30:47;;;;;;;81.40;42.08;;;11.50;84.80;;;;;;4982178;28;20252;-92
2021/10/09 05:33:19;;;;;;;80.90;43.85;;;11.50;84.60;;;;;;4981734;28;20279;-95
2021/10/09 05:39:07;;;;;;;77.95;40.97;;;11.50;84.50;;;;;;4999068;28;20152;-92
2021/10/09 05:41:33;;;;;;;81.77;43.07;;;11.50;84.20;;;;;;4981932;28;20168;-93
2021/10/09 05:43:59;;;;;;;84.37;42.30;;;11.40;84.20;;;;;;4981781;28;20443;-93
2021/10/09 05:46:25;;;;;;;85.70;44.67;;;11.40;84.20;;;;;;4966037;28;20191;-92
2021/10/09 05:48:52;;;;;;;80.37;42.60;;;11.50;84.20;;;;;;4982000;28;20179;-94
2021/10/09 06:25:33;;;;;;;86.45;42.70;;;11.40;84.00;;;;;;4998721;28;20163;-93
2021/10/09 06:46:32;;;;;;;75.82;38.90;;;11.50;83.70;;;;;;4998460;28;20155;-95
2021/10/09 06:49:11;;;;;;;71.95;38.17;;;11.40;83.40;;;;;;4998195;28;20172;-95
2021/10/09 06:59:50;;;;;;;70.18;37.78;;;11.60;82.90;;;;;;4996595;28;20167;-94
2021/10/09 07:02:16;;;;;;;62.65;35.78;;;11.60;82.20;;;;;;4967876;28;20203;-93
2021/10/09 07:04:42;;;;;;;66.43;35.08;;;11.60;82.20;;;;;;4964582;28;20597;-93
2021/10/09 07:07:09;;;;;;;69.00;37.43;;;11.60;82.10;;;;;;4966728;28;20222;-93
2021/10/09 07:09:35;;;;;;;63.25;34.92;;;11.40;82.10;;;;;;4969346;28;20190;-94
2021/10/09 07:12:01;;;;;;;55.07;33.30;;;11.50;82.40;;;;;;4968204;28;20199;-94
2021/10/09 07:14:27;;;;;;;71.40;37.33;;;11.50;82.40;;;;;;4968313;28;20204;-93
2021/10/09 07:16:52;;;;;;;58.13;34.70;;;11.60;82.30;;;;;;4967647;28;20342;-93
2021/10/09 07:19:18;;;;;;;58.90;34.00;;;11.70;82.10;;;;;;4984955;28;20427;-94
2021/10/09 07:21:44;;;;;;;60.15;35.25;;;11.70;81.90;;;;;;4984539;28;20186;-93
2021/10/09 07:24:10;;;;;;;65.60;37.10;;;11.70;81.90;;;;;;4966577;28;20215;-93
2021/10/09 07:26:36;;;;;;;65.50;35.40;;;11.80;82.00;;;;;;4968375;28;20435;-93
2021/10/09 07:29:02;;;;;;;66.88;35.05;;;11.80;81.60;;;;;;4969108;28;20188;-94
2021/10/09 07:31:28;;;;;;;63.20;34.95;;;11.80;81.50;;;;;;4978406;28;20188;-94
2021/10/09 07:33:53;;;;;;;63.53;33.43;;;11.70;81.30;;;;;;4983250;28;20227;-93
2021/10/09 07:36:19;;;;;;;65.17;35.07;;;11.80;81.50;;;;;;4983496;28;20426;-93
2021/10/09 07:38:45;;;;;;;72.90;36.20;;;12.00;81.50;;;;;;4983452;28;20240;-93
2021/10/09 07:41:14;;;;;;;65.03;34.00;;;12.00;81.30;;;;;;4982570;28;20175;-94
2021/10/09 07:43:42;;;;;;;70.72;35.17;;;12.00;81.20;;;;;;4972173;28;20295;-94
2021/10/09 07:46:08;;;;;;;59.03;32.28;;;12.00;81.30;;;;;;4968813;28;20184;-93
2021/10/09 07:48:34;;;;;;;68.17;35.13;;;12.00;81.10;;;;;;4967790;28;20288;-93
2021/10/09 07:51:00;;;;;;;59.97;36.33;;;12.00;81.30;;;;;;4970882;28;20223;-94
2021/10/09 07:53:35;;;;;;;68.55;34.15;;;11.90;81.40;;;;;;4969622;28;20208;-94
2021/10/09 07:56:01;;;;;;;57.20;33.80;;;12.00;81.50;;;;;;4970962;28;20171;-94
2021/10/09 07:58:27;;;;;;;67.55;33.38;;;11.90;81.20;;;;;;4974060;28;20223;-94
2021/10/09 08:00:56;;;;;;;64.57;35.73;;;11.90;81.40;;;;;;4976530;28;20291;-93
2021/10/09 08:03:24;;;;;;;59.88;32.65;;;12.10;81.60;;;;;;4978342;28;20455;-94
2021/10/09 08:05:52;;;;;;;64.10;34.70;;;12.20;81.50;;;;;;4969466;28;20203;-94
2021/10/09 08:08:19;;;;;;;62.25;35.30;;;12.20;81.00;;;;;;4966596;28;20184;-94
2021/10/09 08:10:47;;;;;;;60.63;34.22;;;12.30;81.00;;;;;;4966133;28;20200;-93
2021/10/09 08:13:14;;;;;;;58.10;33.08;;;12.50;80.90;;;;;;4966828;28;20231;-94
2021/10/09 08:15:40;;;;;;;56.25;33.30;;;12.40;80.40;;;;;;4970346;28;20188;-93
2021/10/09 08:18:06;;;;;;;56.35;32.42;;;12.60;80.40;;;;;;4967420;28;20187;-94
2021/10/09 08:20:32;;;;;;;56.67;32.63;;;12.70;80.20;;;;;;4971029;28;20188;-94
2021/10/09 08:23:05;;;;;;;53.75;32.83;;;12.60;79.50;;;;;;4974478;28;20445;-93
2021/10/09 08:36:33;;;;;;;57.90;33.70;;;13.20;78.00;;;;;;4997852;28;20180;-93
2021/10/09 08:38:59;;;;;;;59.60;35.00;;;13.20;77.70;;;;;;4980118;28;20188;-93
2021/10/09 08:41:25;;;;;;;58.33;33.30;;;13.10;77.30;;;;;;4975320;28;20200;-94
2021/10/09 08:43:53;;;;;;;57.10;35.83;;;13.00;77.50;;;;;;4972959;28;20439;-94
2021/10/09 08:46:20;;;;;;;63.13;33.65;;;13.10;77.60;;;;;;4966123;28;20930;-94
2021/10/09 08:48:48;;;;;;;58.92;32.38;;;13.20;77.40;;;;;;4965405;28;20183;-94
2021/10/09 08:51:23;;;;;;;54.47;32.78;;;13.30;77.40;;;;;;4966054;28;20179;-93
2021/10/09 08:53:50;;;;;;;62.97;33.65;;;13.40;77.20;;;;;;4967134;28;20211;-94
2021/10/09 08:56:36;;;;;;;54.03;32.65;;;13.70;77.10;;;;;;4984079;28;20206;-94
2021/10/09 08:59:14;;;;;;;56.83;31.90;;;13.80;76.60;;;;;;4966977;28;20191;-94
2021/10/09 09:07:09;;;;;;;61.15;32.90;;;13.80;75.30;;;;;;4982706;28;20224;-94
2021/10/09 09:26:31;;;;;;;56.20;34.65;;;14.40;74.70;;;;;;4985759;28;20174;-95
2021/10/09 09:37:05;;;;;;;52.43;31.83;;;14.60;73.20;;;;;;4989133;28;20187;-95
2021/10/09 09:39:44;;;;;;;55.80;33.10;;;14.70;73.00;;;;;;4974407;28;20466;-94
2021/10/09 09:42:11;;;;;;;53.00;32.00;;;14.80;72.70;;;;;;4972757;28;20180;-94
2021/10/09 09:44:55;;;;;;;64.22;30.73;;;14.80;72.70;;;;;;4973307;28;20234;-94
2021/10/09 09:47:37;;;;;;;60.65;34.55;;;14.80;72.50;;;;;;4974516;28;20199;-94
2021/10/09 09:50:05;;;;;;;47.28;30.10;;;14.80;72.30;;;;;;4975841;28;20255;-94
2021/10/09 09:52:42;;;;;;;48.28;28.45;;;14.80;72.80;;;;;;4979597;28;20235;-94
2021/10/09 09:55:11;;;;;;;60.65;31.15;;;14.80;71.80;;;;;;4980293;28;20239;-94
2021/10/09 09:57:38;;;;;;;52.75;30.50;;;14.90;72.20;;;;;;4960535;28;20200;-92
2021/10/09 10:00:12;;;;;;;48.78;29.80;;;15.10;72.30;;;;;;4978392;28;20184;-94
2021/10/09 10:02:50;;;;;;;45.40;29.17;;;15.20;72.00;;;;;;4980846;28;20227;-93
2021/10/09 10:05:18;;;;;;;54.50;31.10;;;15.40;71.90;;;;;;4981448;28;20239;-95
2021/10/09 10:07:46;;;;;;;59.15;31.17;;;15.50;71.70;;;;;;4981664;28;20183;-95
2021/10/09 10:10:13;;;;;;;47.00;28.95;;;15.70;71.10;;;;;;4981213;28;20187;-96
2021/10/09 10:12:40;;;;;;;54.65;30.67;;;15.50;70.10;;;;;;4981342;28;20202;-95
2021/10/09 10:15:10;;;;;;;50.50;29.98;;;15.60;70.00;;;;;;4978192;28;20611;-93
2021/10/09 10:17:44;;;;;;;52.72;31.65;;;15.60;69.80;;;;;;4968767;28;20176;-93
2021/10/09 10:20:12;;;;;;;54.63;32.65;;;15.70;69.90;;;;;;4967121;28;20191;-94
2021/10/09 10:22:39;;;;;;;51.50;28.23;;;15.70;69.40;;;;;;4981684;28;20582;-93
2021/10/09 10:25:26;;;;;;;48.35;30.15;;;15.70;69.50;;;;;;4963793;28;20180;-94
2021/10/09 10:28:21;;;;;;;50.42;27.85;;;15.50;69.80;;;;;;4961833;28;20187;-93
2021/10/09 10:31:04;;;;;;;47.80;28.27;;;15.60;69.20;;;;;;4963442;28;20180;-94
2021/10/09 10:33:36;;;;;;;47.50;27.45;;;15.60;69.10;;;;;;4963016;28;20203;-93
2021/10/09 10:36:06;;;;;;;48.80;27.63;;;15.80;69.10;;;;;;4963411;28;20698;-92
2021/10/09 10:38:42;;;;;;;44.25;28.52;;;15.80;69.00;;;;;;4966872;28;20169;-94
2021/10/09 10:41:11;;;;;;;48.78;28.30;;;15.90;68.90;;;;;;4967823;28;20200;-95
2021/10/09 10:43:42;;;;;;;41.15;28.08;;;16.00;68.50;;;;;;4968229;28;20206;-94
2021/10/09 10:57:01;;;;;;;51.28;28.23;;;16.40;67.40;;;;;;4988492;28;20683;-94
2021/10/09 10:59:33;;;;;;;40.75;26.42;;;16.30;67.00;;;;;;4971450;28;20175;-94
2021/10/09 11:02:10;;;;;;;45.40;27.05;;;16.20;67.00;;;;;;4984319;28;20165;-94
2021/10/09 11:04:39;;;;;;;46.38;27.65;;;16.20;67.20;;;;;;4964721;28;20207;-95
2021/10/09 11:07:05;;;;;;;48.08;26.17;;;16.30;67.20;;;;;;4968354;28;20184;-94
2021/10/09 11:09:33;;;;;;;46.15;27.50;;;16.50;67.20;;;;;;4967370;28;20607;-94
2021/10/09 11:11:59;;;;;;;46.28;25.92;;;16.70;66.80;;;;;;4969087;28;20214;-95
2021/10/09 11:14:26;;;;;;;44.22;27.52;;;16.80;66.80;;;;;;4985002;28;20224;-95
2021/10/09 11:17:04;;;;;;;43.28;25.02;;;16.80;65.70;;;;;;4968994;28;20188;-95
2021/10/09 11:19:50;;;;;;;40.33;24.17;;;16.70;65.10;;;;;;4973120;28;20199;-95
2021/10/09 11:22:19;;;;;;;44.45;24.55;;;16.80;64.70;;;;;;4970770;28;20176;-95
2021/10/09 11:24:51;;;;;;;42.58;26.92;;;16.60;65.10;;;;;;4968728;28;20227;-94
2021/10/09 11:27:19;;;;;;;41.50;24.35;;;16.80;65.00;;;;;;4968647;28;20184;-94
2021/10/09 11:30:07;;;;;;;36.67;23.58;;;17.00;65.10;;;;;;4990955;28;20199;-96
2021/10/09 11:32:35;;;;;;;33.83;22.27;;;17.00;64.20;;;;;;4975750;28;20330;-95
2021/10/09 11:35:01;;;;;;;35.25;24.20;;;17.00;63.80;;;;;;4978933;28;20196;-95
2021/10/09 11:37:28;;;;;;;37.35;24.30;;;16.90;63.50;;;;;;4983759;28;20183;-96
2021/10/09 11:39:57;;;;;;;36.42;23.10;;;16.80;63.50;;;;;;4983206;28;20215;-94
2021/10/09 11:42:26;;;;;;;36.47;22.73;;;17.00;63.50;;;;;;4981163;28;20184;-95
2021/10/09 11:56:04;;;;;;;31.33;20.45;;;17.70;60.90;;;;;;4985582;28;20600;-94
2021/10/09 11:58:31;;;;;;;33.67;21.27;;;17.40;60.00;;;;;;4965456;28;20187;-94
2021/10/09 12:00:58;;;;;;;37.30;21.33;;;17.50;60.20;;;;;;4965460;28;20172;-95
2021/10/09 12:03:26;;;;;;;38.45;23.73;;;17.50;60.70;;;;;;4966209;28;20204;-94
2021/10/09 12:05:54;;;;;;;31.42;18.30;;;17.80;60.30;;;;;;4973106;28;20243;-94
2021/10/09 12:08:25;;;;;;;29.45;20.00;;;17.70;59.50;;;;;;4948993;28;20188;-94
2021/10/09 12:11:17;;;;;;;30.63;18.98;;;17.60;58.90;;;;;;4966806;28;20194;-94
2021/10/09 12:13:58;;;;;;;31.95;19.70;;;17.70;59.20;;;;;;4973879;28;20219;-95
2021/10/09 12:16:48;;;;;;;28.02;18.10;;;17.60;58.30;;;;;;4972984;28;20203;-95
2021/10/09 12:19:40;;;;;;;31.92;19.25;;;17.70;57.90;;;;;;4971706;28;20198;-94
2021/10/09 12:22:26;;;;;;;35.63;21.73;;;17.70;58.50;;;;;;4981679;28;20259;-95
2021/10/09 12:24:56;;;;;;;31.55;18.55;;;17.60;58.70;;;;;;4949009;28;20190;-94
2021/10/09 12:27:26;;;;;;;35.17;20.40;;;17.80;58.80;;;;;;4942205;29;20285;-94
2021/10/09 12:30:09;;;;;;;29.42;19.38;;;17.70;58.20;;;;;;4925634;29;20209;-92
2021/10/09 12:32:43;;;;;;;30.00;18.23;;;17.70;58.90;;;;;;4923110;29;20189;-94
2021/10/09 12:35:30;;;;;;;28.75;18.75;;;17.70;60.10;;;;;;4926151;29;20204;-95
2021/10/09 12:38:10;;;;;;;26.23;17.65;;;17.80;57.90;;;;;;4931104;29;20329;-95
2021/10/09 12:40:37;;;;;;;28.25;16.98;;;18.00;57.50;;;;;;4934919;29;20180;-96
2021/10/09 12:43:18;;;;;;;26.85;18.15;;;18.20;57.00;;;;;;4945358;29;20205;-94
2021/10/09 15:18:56;;;;;;;18.38;12.82;;;18.80;49.80;;;;;;4969933;29;20235;-95
2021/10/09 15:21:24;;;;;;;21.60;13.50;;;18.90;50.20;;;;;;4952300;29;20192;-96
2021/10/09 15:23:56;;;;;;;20.50;13.23;;;18.80;50.40;;;;;;4956330;29;20456;-95
2021/10/09 15:26:39;;;;;;;30.65;14.50;;;18.90;50.60;;;;;;4973865;28;20288;-96
2021/10/09 15:29:08;;;;;;;22.58;14.48;;;19.00;50.90;;;;;;4974907;28;20207;-95
2021/10/09 15:31:42;;;;;;;18.60;13.35;;;18.80;51.20;;;;;;4960197;29;20204;-96
2021/10/09 15:34:13;;;;;;;18.95;13.32;;;18.80;51.20;;;;;;4976264;29;20216;-95
2021/10/09 15:36:42;;;;;;;17.55;13.52;;;18.80;51.40;;;;;;4979474;28;20181;-95
2021/10/09 15:39:28;;;;;;;21.40;12.70;;;18.80;51.20;;;;;;4979139;28;20244;-96
2021/10/09 15:41:54;;;;;;;20.58;13.40;;;18.80;51.40;;;;;;4980758;28;20199;-95
2021/10/09 15:44:20;;;;;;;20.47;13.20;;;18.70;51.60;;;;;;4978348;28;20200;-95
2021/10/09 15:46:45;;;;;;;20.90;12.53;;;18.70;51.80;;;;;;4974977;29;20472;-95
2021/10/09 15:49:11;;;;;;;17.97;13.20;;;18.90;52.20;;;;;;4973984;29;20194;-95
2021/10/09 15:51:39;;;;;;;22.33;14.07;;;18.80;53.20;;;;;;4969212;29;20176;-95
2021/10/09 15:54:05;;;;;;;24.30;14.65;;;18.70;52.60;;;;;;4967881;29;20645;-94
2021/10/09 15:56:31;;;;;;;24.50;15.17;;;18.60;52.80;;;;;;4963584;28;20188;-94
2021/10/09 15:58:57;;;;;;;18.60;14.17;;;18.60;53.00;;;;;;4961688;29;20173;-94
2021/10/09 16:01:26;;;;;;;19.42;13.63;;;18.60;53.50;;;;;;4961424;29;20192;-95
2021/10/09 16:03:55;;;;;;;19.52;14.90;;;18.60;53.60;;;;;;4961790;29;20587;-94
2021/10/09 16:06:25;;;;;;;21.30;13.50;;;18.60;53.80;;;;;;4966182;29;20176;-94
2021/10/09 16:08:51;;;;;;;27.75;15.38;;;18.50;53.60;;;;;;4962454;29;20183;-94
2021/10/09 16:11:17;;;;;;;20.90;14.00;;;18.50;53.60;;;;;;4960842;29;20200;-94
2021/10/09 16:13:43;;;;;;;22.47;15.47;;;18.40;53.60;;;;;;4959902;29;20452;-94
2021/10/09 16:16:09;;;;;;;23.13;15.00;;;18.40;54.10;;;;;;4960261;28;20196;-93
2021/10/09 16:18:35;;;;;;;24.40;15.05;;;18.50;54.20;;;;;;4960832;29;20271;-94
2021/10/09 16:21:01;;;;;;;21.90;13.83;;;18.40;54.50;;;;;;4961452;29;20256;-94
2021/10/09 16:23:27;;;;;;;21.33;14.27;;;18.40;54.80;;;;;;4961975;29;20278;-94
2021/10/09 16:25:52;;;;;;;20.10;14.57;;;18.30;55.20;;;;;;4962704;29;20880;-94
2021/10/09 16:28:18;;;;;;;22.23;16.60;;;18.30;55.50;;;;;;4965092;29;20242;-94
2021/10/09 16:30:46;;;;;;;19.60;15.33;;;18.30;55.60;;;;;;4970745;28;20190;-94
2021/10/09 16:33:12;;;;;;;22.08;14.93;;;18.20;55.80;;;;;;4990485;28;20263;-93
2021/10/09 16:35:39;;;;;;;25.83;15.85;;;18.10;56.20;;;;;;4996174;28;20226;-94
2021/10/09 16:38:05;;;;;;;28.70;15.73;;;18.10;56.50;;;;;;4980271;28;20224;-94
2021/10/09 16:40:32;;;;;;;22.73;15.57;;;18.10;56.70;;;;;;4992749;28;20172;-94
2021/10/09 16:42:58;;;;;;;24.27;15.93;;;18.10;56.90;;;;;;4992808;28;20200;-95
2021/10/09 16:45:24;;;;;;;26.40;14.48;;;18.10;57.10;;;;;;4990004;28;20184;-95
2021/10/09 16:47:49;;;;;;;23.33;16.50;;;17.90;57.60;;;;;;4985826;28;20180;-96
2021/10/09 16:50:15;;;;;;;26.90;18.47;;;17.80;58.00;;;;;;4983917;28;20180;-95
2021/10/09 16:52:41;;;;;;;35.33;17.33;;;17.80;58.50;;;;;;4966129;28;20672;-94
2021/10/09 16:55:08;;;;;;;34.40;17.40;;;17.70;58.60;;;;;;4970221;28;20502;-95
2021/10/09 16:57:33;;;;;;;48.97;20.38;;;17.70;58.90;;;;;;4958382;29;20425;-93
2021/10/09 16:59:59;;;;;;;53.10;23.53;;;17.70;59.10;;;;;;4958052;29;20206;-93
2021/10/09 17:02:25;;;;;;;63.77;28.30;;;17.60;59.30;;;;;;4960540;28;20264;-93
2021/10/09 17:04:55;;;;;;;38.10;21.30;;;17.60;59.60;;;;;;4961949;29;20255;-94
2021/10/09 17:07:21;;;;;;;31.33;20.67;;;17.50;59.80;;;;;;4945053;29;20177;-94
2021/10/09 17:09:53;;;;;;;31.05;19.10;;;17.60;60.00;;;;;;4959265;29;20188;-93
2021/10/09 17:12:23;;;;;;;30.77;20.13;;;17.50;60.40;;;;;;4959946;28;20190;-95
2021/10/09 17:14:49;;;;;;;36.67;19.45;;;17.40;60.50;;;;;;4968528;29;20295;-94
2021/10/09 17:17:15;;;;;;;28.65;18.00;;;17.30;60.80;;;;;;4965688;29;20180;-95
2021/10/09 17:19:41;;;;;;;26.25;18.90;;;17.30;61.10;;;;;;4967615;29;20202;-93
2021/10/09 17:22:08;;;;;;;28.70;18.73;;;17.30;61.20;;;;;;4960866;29;20263;-94
2021/10/09 17:24:34;;;;;;;31.45;19.25;;;17.30;61.40;;;;;;4960538;28;20455;-94
2021/10/09 17:26:59;;;;;;;27.90;18.10;;;17.20;61.60;;;;;;4962429;29;20180;-93
2021/10/09 17:29:25;;;;;;;25.63;18.27;;;17.10;61.90;;;;;;4958861;29;20460;-94